createdAt,value
2023-03-19T00:00:06.830Z,57.63
2023-03-19T00:01:08.826Z,59.09
2023-03-19T00:02:17.402Z,56.19
2023-03-19T00:03:15.197Z,56.40
2023-03-19T00:04:17.609Z,50.69
2023-03-19T00:05:19.500Z,45.17
2023-03-19T00:06:22.045Z,43.42
2023-03-19T00:07:24.139Z,44.67
2023-03-19T00:08:26.205Z,45.19
2023-03-19T00:09:28.442Z,45.06
2023-03-19T00:10:30.543Z,46.21
2023-03-19T00:11:32.839Z,44.29
2023-03-19T00:12:34.758Z,42.01
2023-03-19T00:13:36.689Z,40.05
2023-03-19T00:14:39.577Z,41.80
2023-03-19T00:15:41.676Z,43.58
2023-03-19T00:16:43.977Z,43.97
2023-03-19T00:17:46.027Z,44.59
2023-03-19T00:18:47.910Z,43.19
2023-03-19T00:19:49.778Z,43.27
2023-03-19T00:20:51.752Z,41.91
2023-03-19T00:21:53.633Z,42.63
2023-03-19T00:22:55.762Z,41.13
2023-03-19T00:23:59.188Z,42.10
2023-03-19T00:25:01.100Z,42.59
2023-03-19T00:26:03.556Z,41.93
2023-03-19T00:27:05.515Z,41.43
2023-03-19T00:28:07.414Z,41.71
2023-03-19T00:29:09.939Z,40.12
2023-03-19T00:30:13.050Z,39.96
2023-03-19T00:31:16.316Z,38.07
2023-03-19T00:32:18.355Z,39.61
2023-03-19T00:33:20.535Z,41.69
2023-03-19T00:34:22.781Z,41.57
2023-03-19T00:35:24.692Z,41.08
2023-03-19T00:36:27.481Z,38.59
2023-03-19T00:37:29.517Z,42.73
2023-03-19T00:38:32.680Z,42.93
2023-03-19T00:39:34.907Z,41.50
2023-03-19T00:40:37.230Z,41.93
2023-03-19T00:41:39.246Z,41.66
2023-03-19T00:42:41.129Z,39.52
2023-03-19T00:43:43.326Z,37.77
2023-03-19T00:44:45.205Z,38.25
2023-03-19T00:45:47.243Z,38.49
2023-03-19T00:46:49.412Z,37.25
2023-03-19T00:47:51.311Z,37.91
2023-03-19T00:48:53.400Z,35.62
2023-03-19T00:49:56.340Z,39.05
2023-03-19T00:51:03.823Z,37.36
2023-03-19T00:52:06.065Z,37.83
2023-03-19T00:53:07.962Z,37.44
2023-03-19T00:54:11.453Z,38.52
2023-03-19T00:55:13.454Z,39.66
2023-03-19T00:56:16.181Z,38.92
2023-03-19T00:57:18.591Z,39.53
2023-03-19T00:58:20.578Z,37.96
2023-03-19T00:59:22.690Z,38.64
2023-03-19T01:00:24.838Z,39.48
2023-03-19T01:01:27.062Z,37.90
2023-03-19T01:02:31.365Z,39.13
2023-03-19T01:03:35.378Z,37.14
2023-03-19T01:04:37.641Z,36.90
2023-03-19T01:05:39.724Z,36.63
2023-03-19T01:06:42.009Z,37.41
2023-03-19T01:07:46.196Z,35.77
2023-03-19T01:08:48.114Z,36.58
2023-03-19T01:09:50.415Z,33.39
2023-03-19T01:10:53.038Z,33.31
2023-03-19T01:11:54.947Z,31.85
2023-03-19T01:12:56.925Z,33.17
2023-03-19T01:13:59.051Z,35.88
2023-03-19T01:15:01.802Z,35.23
2023-03-19T01:16:05.814Z,37.39
2023-03-19T01:17:08.195Z,37.89
2023-03-19T01:18:12.259Z,36.02
2023-03-19T01:19:14.631Z,37.65
2023-03-19T01:20:17.054Z,38.07
2023-03-19T01:21:19.674Z,39.38
2023-03-19T01:22:21.755Z,39.78
2023-03-19T01:23:24.193Z,37.83
2023-03-19T01:24:31.297Z,39.14
2023-03-19T01:25:34.138Z,39.48
2023-03-19T01:26:36.356Z,39.14
2023-03-19T01:27:38.922Z,40.89
2023-03-19T01:28:42.508Z,41.46
2023-03-19T01:29:44.420Z,40.49
2023-03-19T01:30:46.547Z,41.51
2023-03-19T01:31:48.762Z,40.77
2023-03-19T01:32:51.106Z,42.56
2023-03-19T01:33:53.078Z,45.73
2023-03-19T01:34:55.061Z,45.19
2023-03-19T01:35:56.988Z,45.91
2023-03-19T01:36:59.562Z,45.85
2023-03-19T01:38:02.132Z,44.27
2023-03-19T01:39:06.062Z,45.12
2023-03-19T01:40:11.768Z,46.24
2023-03-19T01:41:14.038Z,49.58
2023-03-19T01:42:16.694Z,47.96
2023-03-19T01:43:21.806Z,49.01
2023-03-19T01:44:36.182Z,49.63
2023-03-19T01:45:41.627Z,48.91
2023-03-19T01:46:43.686Z,48.64
2023-03-19T01:47:46.093Z,47.52
2023-03-19T01:48:51.147Z,45.61
2023-03-19T01:49:55.877Z,42.16
2023-03-19T01:51:01.662Z,45.14
2023-03-19T01:52:05.914Z,42.37
2023-03-19T01:53:12.631Z,42.06
2023-03-19T01:54:18.567Z,40.83
2023-03-19T01:55:20.776Z,41.24
2023-03-19T01:56:34.674Z,41.03
2023-03-19T01:57:37.768Z,39.47
2023-03-19T01:58:42.998Z,40.84
2023-03-19T01:59:48.823Z,43.19
2023-03-19T02:00:51.372Z,42.26
2023-03-19T02:01:57.541Z,42.87
2023-03-19T02:03:01.776Z,42.84
2023-03-19T02:04:05.612Z,44.66
2023-03-19T02:05:11.551Z,46.21
2023-03-19T02:06:16.344Z,47.08
2023-03-19T02:07:19.529Z,47.48
2023-03-19T02:08:24.133Z,46.51
2023-03-19T02:09:28.574Z,47.96
2023-03-19T02:10:32.016Z,47.26
2023-03-19T02:11:36.649Z,49.34
2023-03-19T02:12:38.940Z,47.08
2023-03-19T02:13:41.683Z,43.69
2023-03-19T02:14:43.667Z,42.22
2023-03-19T02:15:45.930Z,41.39
2023-03-19T02:16:48.482Z,38.40
2023-03-19T02:17:50.460Z,39.71
2023-03-19T02:18:52.644Z,38.20
2023-03-19T02:20:01.079Z,39.40
2023-03-19T02:21:07.014Z,40.13
2023-03-19T02:22:12.157Z,38.38
2023-03-19T02:23:27.361Z,36.34
2023-03-19T02:24:38.781Z,36.01
2023-03-19T02:26:48.958Z,36.98
2023-03-19T02:27:51.295Z,36.75
2023-03-19T02:28:53.777Z,36.20
2023-03-19T02:29:55.841Z,36.81
2023-03-19T02:30:58.600Z,37.53
2023-03-19T02:32:00.839Z,37.48
2023-03-19T02:33:03.817Z,39.26
2023-03-19T02:34:15.314Z,39.80
2023-03-19T02:35:18.704Z,42.03
2023-03-19T02:36:21.585Z,44.48
2023-03-19T02:37:31.204Z,46.47
2023-03-19T02:38:33.992Z,46.55
2023-03-19T02:39:48.506Z,44.93
2023-03-19T02:41:00.106Z,45.94
2023-03-19T02:42:03.810Z,47.66
2023-03-19T02:43:05.847Z,45.19
2023-03-19T02:44:10.646Z,43.89
2023-03-19T02:45:13.298Z,43.68
2023-03-19T02:46:15.442Z,42.46
2023-03-19T02:47:18.377Z,41.29
2023-03-19T02:48:20.749Z,43.50
2023-03-19T02:49:22.738Z,40.65
2023-03-19T02:50:25.650Z,44.09
2023-03-19T02:51:27.833Z,42.15
2023-03-19T02:52:30.887Z,42.69
2023-03-19T02:53:32.775Z,43.04
2023-03-19T02:54:34.842Z,42.68
2023-03-19T02:55:37.959Z,42.53
2023-03-19T02:56:39.973Z,42.33
2023-03-19T02:57:41.987Z,43.79
2023-03-19T02:58:43.965Z,43.02
2023-03-19T02:59:46.855Z,42.80
2023-03-19T03:00:49.146Z,41.55
2023-03-19T03:01:51.305Z,42.02
2023-03-19T03:02:55.683Z,41.57
2023-03-19T03:03:57.706Z,42.58
2023-03-19T03:04:59.623Z,41.64
2023-03-19T03:06:01.503Z,41.45
2023-03-19T03:07:04.321Z,40.25
2023-03-19T03:08:06.222Z,41.07
2023-03-19T03:09:09.817Z,40.57
2023-03-19T03:10:13.136Z,39.75
2023-03-19T03:11:15.157Z,36.42
2023-03-19T03:12:17.228Z,38.79
2023-03-19T03:13:19.099Z,40.97
2023-03-19T03:14:20.981Z,39.05
2023-03-19T03:15:23.268Z,41.15
2023-03-19T03:16:25.418Z,40.65
2023-03-19T03:17:28.312Z,38.63
2023-03-19T03:18:30.317Z,38.05
2023-03-19T03:19:32.459Z,39.29
2023-03-19T03:20:35.060Z,38.13
2023-03-19T03:21:37.239Z,40.03
2023-03-19T03:22:40.039Z,38.11
2023-03-19T03:23:42.057Z,38.24
2023-03-19T03:24:44.415Z,39.52
2023-03-19T03:25:49.450Z,38.20
2023-03-19T03:26:51.636Z,37.99
2023-03-19T03:27:53.520Z,37.35
2023-03-19T03:28:55.796Z,38.10
2023-03-19T03:29:57.877Z,38.71
2023-03-19T03:31:01.603Z,38.79
2023-03-19T03:32:03.964Z,35.91
2023-03-19T03:33:05.986Z,39.27
2023-03-19T03:34:09.435Z,37.63
2023-03-19T03:35:12.050Z,37.78
2023-03-19T03:36:14.445Z,37.58
2023-03-19T03:37:16.580Z,37.04
2023-03-19T03:38:18.765Z,36.92
2023-03-19T03:39:21.464Z,36.06
2023-03-19T03:40:23.444Z,38.96
2023-03-19T03:41:25.808Z,37.44
2023-03-19T03:42:27.728Z,38.93
2023-03-19T03:43:29.716Z,38.20
2023-03-19T03:44:31.693Z,37.54
2023-03-19T03:45:33.592Z,38.16
2023-03-19T03:46:35.984Z,35.18
2023-03-19T03:47:38.055Z,33.51
2023-03-19T03:48:40.709Z,35.61
2023-03-19T03:49:43.436Z,36.05
2023-03-19T03:50:45.515Z,34.16
2023-03-19T03:51:47.599Z,33.70
2023-03-19T03:52:49.958Z,33.39
2023-03-19T03:53:51.940Z,35.27
2023-03-19T03:54:53.827Z,34.23
2023-03-19T03:55:55.885Z,34.80
2023-03-19T03:56:57.847Z,34.15
2023-03-19T03:57:59.954Z,32.05
2023-03-19T03:59:02.154Z,29.45
2023-03-19T04:00:05.650Z,29.51
2023-03-19T04:01:07.570Z,29.75
2023-03-19T04:02:09.904Z,30.67
2023-03-19T04:03:11.887Z,34.70
2023-03-19T04:04:14.639Z,31.47
2023-03-19T04:05:17.482Z,31.25
2023-03-19T04:06:22.145Z,31.67
2023-03-19T04:07:24.077Z,31.52
2023-03-19T04:08:25.992Z,35.65
2023-03-19T04:09:27.895Z,37.85
2023-03-19T04:10:30.799Z,39.24
2023-03-19T04:11:33.930Z,37.05
2023-03-19T04:12:37.592Z,38.00
2023-03-19T04:13:39.489Z,38.94
2023-03-19T04:14:41.481Z,39.23
2023-03-19T04:15:43.865Z,40.55
2023-03-19T04:16:46.104Z,43.95
2023-03-19T04:17:49.250Z,44.94
2023-03-19T04:18:51.136Z,46.19
2023-03-19T04:19:53.038Z,47.09
2023-03-19T04:20:55.064Z,44.72
2023-03-19T04:21:58.279Z,44.55
2023-03-19T04:23:00.670Z,40.17
2023-03-19T04:24:02.996Z,43.29
2023-03-19T04:25:07.495Z,48.69
2023-03-19T04:26:10.053Z,43.40
2023-03-19T04:27:11.961Z,41.47
2023-03-19T04:28:14.104Z,41.43
2023-03-19T04:29:16.202Z,42.89
2023-03-19T04:30:18.480Z,41.35
2023-03-19T04:31:20.522Z,40.85
2023-03-19T04:32:22.782Z,41.05
2023-03-19T04:33:25.433Z,42.99
2023-03-19T04:34:27.504Z,43.05
2023-03-19T04:35:30.160Z,42.09
2023-03-19T04:36:32.559Z,43.23
2023-03-19T04:37:34.582Z,42.73
2023-03-19T04:38:36.768Z,49.60
2023-03-19T04:39:39.630Z,55.75
2023-03-19T04:40:41.737Z,52.71
2023-03-19T04:41:43.640Z,45.52
2023-03-19T04:42:45.689Z,40.55
2023-03-19T04:43:47.607Z,43.03
2023-03-19T04:44:49.493Z,46.27
2023-03-19T04:45:51.558Z,45.31
2023-03-19T04:46:54.207Z,45.39
2023-03-19T04:47:56.092Z,44.27
2023-03-19T04:48:57.986Z,42.62
2023-03-19T04:50:00.161Z,41.10
2023-03-19T04:51:02.681Z,40.93
2023-03-19T04:52:05.301Z,37.97
2023-03-19T04:53:07.518Z,37.56
2023-03-19T04:54:09.515Z,38.45
2023-03-19T04:55:11.452Z,36.76
2023-03-19T04:56:14.483Z,35.68
2023-03-19T04:57:16.483Z,34.73
2023-03-19T04:58:18.393Z,33.73
2023-03-19T04:59:22.940Z,35.12
2023-03-19T05:00:25.020Z,33.40
2023-03-19T05:01:27.328Z,34.81
2023-03-19T05:02:29.505Z,34.46
2023-03-19T05:03:31.440Z,34.49
2023-03-19T05:04:33.382Z,34.71
2023-03-19T05:05:35.283Z,32.85
2023-03-19T05:06:38.722Z,33.65
2023-03-19T05:07:40.980Z,34.31
2023-03-19T05:08:42.877Z,35.71
2023-03-19T05:09:44.808Z,35.09
2023-03-19T05:10:47.053Z,33.34
2023-03-19T05:11:50.911Z,33.94
2023-03-19T05:12:52.936Z,34.24
2023-03-19T05:13:55.510Z,34.65
2023-03-19T05:14:58.480Z,33.95
2023-03-19T05:16:01.439Z,31.02
2023-03-19T05:17:03.976Z,33.68
2023-03-19T05:18:05.883Z,34.52
2023-03-19T05:19:07.943Z,34.52
2023-03-19T05:20:11.429Z,36.51
2023-03-19T05:21:14.038Z,38.34
2023-03-19T05:22:15.937Z,38.17
2023-03-19T05:23:18.265Z,39.89
2023-03-19T05:24:20.291Z,36.82
2023-03-19T05:25:22.174Z,39.39
2023-03-19T05:26:24.492Z,36.52
2023-03-19T05:27:26.366Z,40.53
2023-03-19T05:28:28.559Z,39.83
2023-03-19T05:29:31.233Z,39.87
2023-03-19T05:30:34.915Z,41.93
2023-03-19T05:31:37.949Z,43.21
2023-03-19T05:32:40.159Z,41.20
2023-03-19T05:33:42.441Z,41.53
2023-03-19T05:34:44.353Z,41.21
2023-03-19T05:35:46.340Z,42.03
2023-03-19T05:36:48.524Z,40.02
2023-03-19T05:37:50.399Z,39.47
2023-03-19T05:38:52.445Z,41.63
2023-03-19T05:39:54.695Z,42.00
2023-03-19T05:40:56.928Z,39.92
2023-03-19T05:42:00.434Z,38.25
2023-03-19T05:43:03.257Z,39.00
2023-03-19T05:44:05.654Z,36.21
2023-03-19T05:45:08.854Z,33.83
2023-03-19T05:46:11.227Z,33.38
2023-03-19T05:47:13.292Z,33.22
2023-03-19T05:48:15.150Z,31.34
2023-03-19T05:49:17.590Z,32.98
2023-03-19T05:50:19.837Z,32.40
2023-03-19T05:51:22.817Z,33.23
2023-03-19T05:52:24.772Z,38.45
2023-03-19T05:53:26.749Z,40.31
2023-03-19T05:54:28.647Z,40.83
2023-03-19T05:55:31.646Z,40.03
2023-03-19T05:56:34.001Z,39.92
2023-03-19T05:57:36.089Z,39.11
2023-03-19T05:58:38.945Z,43.02
2023-03-19T05:59:41.452Z,46.83
2023-03-19T06:00:43.449Z,46.62
2023-03-19T06:01:45.716Z,45.51
2023-03-19T06:02:47.782Z,43.40
2023-03-19T06:03:49.823Z,41.41
2023-03-19T06:04:51.928Z,43.80
2023-03-19T06:05:54.315Z,44.02
2023-03-19T06:06:56.604Z,45.65
2023-03-19T06:07:58.672Z,46.74
2023-03-19T06:09:00.537Z,51.65
2023-03-19T06:10:03.331Z,49.84
2023-03-19T06:11:05.244Z,49.48
2023-03-19T06:12:07.712Z,50.55
2023-03-19T06:13:09.759Z,50.51
2023-03-19T06:14:12.010Z,53.34
2023-03-19T06:15:14.141Z,57.40
2023-03-19T06:16:16.136Z,55.53
2023-03-19T06:17:19.099Z,57.58
2023-03-19T06:18:21.772Z,56.16
2023-03-19T06:19:23.764Z,54.43
2023-03-19T06:20:25.918Z,50.71
2023-03-19T06:21:27.816Z,51.49
2023-03-19T06:22:29.683Z,51.40
2023-03-19T06:23:32.487Z,49.11
2023-03-19T06:24:34.494Z,47.96
2023-03-19T06:25:36.498Z,48.28
2023-03-19T06:26:40.663Z,50.01
2023-03-19T06:27:42.681Z,54.58
2023-03-19T06:28:44.677Z,51.31
2023-03-19T06:29:46.567Z,51.90
2023-03-19T06:30:48.831Z,49.86
2023-03-19T06:31:51.025Z,45.80
2023-03-19T06:32:53.276Z,42.49
2023-03-19T06:33:55.614Z,41.33
2023-03-19T06:34:57.652Z,37.29
2023-03-19T06:35:59.570Z,34.69
2023-03-19T06:37:01.841Z,33.19
2023-03-19T06:38:03.748Z,35.87
2023-03-19T06:39:05.738Z,35.93
2023-03-19T06:40:10.517Z,35.10
2023-03-19T06:41:13.364Z,33.48
2023-03-19T06:42:15.308Z,29.87
2023-03-19T06:43:17.246Z,28.85
2023-03-19T06:44:19.288Z,27.59
2023-03-19T06:45:21.282Z,28.14
2023-03-19T06:46:25.153Z,28.41
2023-03-19T06:47:27.284Z,25.26
2023-03-19T06:48:29.492Z,24.28
2023-03-19T06:49:31.369Z,24.17
2023-03-19T06:50:33.653Z,21.69
2023-03-19T06:51:36.103Z,21.81
2023-03-19T06:52:38.608Z,22.45
2023-03-19T06:53:40.900Z,21.52
2023-03-19T06:54:42.886Z,22.05
2023-03-19T06:55:47.539Z,21.56
2023-03-19T06:56:49.671Z,21.06
2023-03-19T06:57:52.697Z,20.24
2023-03-19T06:58:55.422Z,20.94
2023-03-19T06:59:57.823Z,20.64
2023-03-19T07:01:00.219Z,20.65
2023-03-19T07:02:02.599Z,22.49
2023-03-19T07:03:04.478Z,20.33
2023-03-19T07:04:09.023Z,21.61
2023-03-19T07:05:11.210Z,20.82
2023-03-19T07:06:13.483Z,21.09
2023-03-19T07:07:15.646Z,20.87
2023-03-19T07:08:18.152Z,20.69
2023-03-19T07:09:20.158Z,23.33
2023-03-19T07:10:22.143Z,22.41
2023-03-19T07:11:24.065Z,24.69
2023-03-19T07:12:25.962Z,24.84
2023-03-19T07:13:27.892Z,26.12
2023-03-19T07:14:32.045Z,26.82
2023-03-19T07:15:34.490Z,27.76
2023-03-19T07:16:36.552Z,28.19
2023-03-19T07:17:39.312Z,29.09
2023-03-19T07:18:41.877Z,27.94
2023-03-19T07:19:44.166Z,31.21
2023-03-19T07:20:46.325Z,30.61
2023-03-19T07:21:48.545Z,30.22
2023-03-19T07:22:51.131Z,31.30
2023-03-19T07:23:53.085Z,27.11
2023-03-19T07:24:55.856Z,22.85
2023-03-19T07:25:57.795Z,21.93
2023-03-19T07:27:00.155Z,21.55
2023-03-19T07:28:02.812Z,20.09
2023-03-19T07:29:05.445Z,19.94
2023-03-19T07:30:09.246Z,22.53
2023-03-19T07:31:11.373Z,20.70
2023-03-19T07:32:14.253Z,15.91
2023-03-19T07:33:16.153Z,14.03
2023-03-19T07:34:18.202Z,13.65
2023-03-19T07:35:20.256Z,13.79
2023-03-19T07:36:23.352Z,13.61
2023-03-19T07:37:25.350Z,13.63
2023-03-19T07:38:27.524Z,12.31
2023-03-19T07:39:29.412Z,12.55
2023-03-19T07:40:31.551Z,13.59
2023-03-19T07:41:35.000Z,14.96
2023-03-19T07:42:36.960Z,14.41
2023-03-19T07:43:38.972Z,14.31
2023-03-19T07:44:40.864Z,12.97
2023-03-19T07:45:42.760Z,12.61
2023-03-19T07:46:44.848Z,9.05
2023-03-19T07:47:50.408Z,7.37
2023-03-19T07:48:52.718Z,8.26
2023-03-19T07:49:56.202Z,7.75
2023-03-19T07:50:58.200Z,7.52
2023-03-19T07:52:00.814Z,6.47
2023-03-19T07:53:03.743Z,5.99
2023-03-19T07:54:05.860Z,5.89
2023-03-19T07:55:08.725Z,6.31
2023-03-19T07:56:11.720Z,6.17
2023-03-19T07:57:13.600Z,6.53
2023-03-19T07:58:16.762Z,7.61
2023-03-19T07:59:19.412Z,6.98
2023-03-19T08:00:21.947Z,7.59
2023-03-19T08:01:23.981Z,10.77
2023-03-19T08:02:26.366Z,7.63
2023-03-19T08:03:30.665Z,8.39
2023-03-19T08:04:32.809Z,7.48
2023-03-19T08:05:35.023Z,6.63
2023-03-19T08:06:37.251Z,16.37
2023-03-19T08:07:40.118Z,10.17
2023-03-19T08:08:42.223Z,12.23
2023-03-19T08:09:44.693Z,11.27
2023-03-19T08:10:46.747Z,6.71
2023-03-19T08:11:48.625Z,5.52
2023-03-19T08:12:50.570Z,5.63
2023-03-19T08:13:52.447Z,5.95
2023-03-19T08:14:54.424Z,5.76
2023-03-19T08:15:56.598Z,5.79
2023-03-19T08:16:59.362Z,5.85
2023-03-19T08:18:03.552Z,5.99
2023-03-19T08:19:05.478Z,5.88
2023-03-19T08:20:10.875Z,5.54
2023-03-19T08:21:12.944Z,5.86
2023-03-19T08:22:14.845Z,5.63
2023-03-19T08:23:17.609Z,6.29
2023-03-19T08:24:19.876Z,5.24
2023-03-19T08:25:21.745Z,5.40
2023-03-19T08:26:23.708Z,5.71
2023-03-19T08:27:25.584Z,5.39
2023-03-19T08:28:27.443Z,5.77
2023-03-19T08:29:29.761Z,5.91
2023-03-19T08:30:33.009Z,5.59
2023-03-19T08:31:35.143Z,5.77
2023-03-19T08:32:37.895Z,5.96
2023-03-19T08:33:40.850Z,6.17
2023-03-19T08:34:42.930Z,6.38
2023-03-19T08:35:45.126Z,5.63
2023-03-19T08:36:48.180Z,5.91
2023-03-19T08:37:50.254Z,6.09
2023-03-19T08:38:52.110Z,6.95
2023-03-19T08:39:54.194Z,6.74
2023-03-19T08:40:58.366Z,5.99
2023-03-19T08:42:00.273Z,5.72
2023-03-19T08:43:02.629Z,5.95
2023-03-19T08:44:04.793Z,5.94
2023-03-19T08:45:08.994Z,6.07
2023-03-19T08:46:11.158Z,5.69
2023-03-19T08:47:13.572Z,5.63
2023-03-19T08:48:15.475Z,5.94
2023-03-19T08:49:17.416Z,5.97
2023-03-19T08:50:19.834Z,5.49
2023-03-19T08:51:22.305Z,8.21
2023-03-19T08:52:25.708Z,15.37
2023-03-19T08:53:28.853Z,16.96
2023-03-19T08:54:31.312Z,11.38
2023-03-19T08:55:33.308Z,7.71
2023-03-19T08:56:35.821Z,7.05
2023-03-19T08:57:37.862Z,5.51
2023-03-19T08:58:39.778Z,5.72
2023-03-19T08:59:41.848Z,6.04
2023-03-19T09:00:43.865Z,5.77
2023-03-19T09:01:51.569Z,5.82
2023-03-19T09:02:53.931Z,5.56
2023-03-19T09:03:55.934Z,5.53
2023-03-19T09:04:57.908Z,5.50
2023-03-19T09:06:01.519Z,5.61
2023-03-19T09:07:04.584Z,5.89
2023-03-19T09:08:07.080Z,5.59
2023-03-19T09:09:08.976Z,5.78
2023-03-19T09:10:12.164Z,5.27
2023-03-19T09:11:14.929Z,5.37
2023-03-19T09:12:18.228Z,5.39
2023-03-19T09:13:20.532Z,5.31
2023-03-19T09:14:22.443Z,5.49
2023-03-19T09:15:25.068Z,5.55
2023-03-19T09:16:27.117Z,5.83
2023-03-19T09:17:29.334Z,5.95
2023-03-19T09:18:31.622Z,5.93
2023-03-19T09:19:34.005Z,5.47
2023-03-19T09:20:36.000Z,5.78
2023-03-19T09:21:37.887Z,5.29
2023-03-19T09:22:40.254Z,5.45
2023-03-19T09:23:42.460Z,5.78
2023-03-19T09:24:44.731Z,4.93
2023-03-19T09:25:46.714Z,5.81
2023-03-19T09:26:48.734Z,5.57
2023-03-19T09:27:51.210Z,5.21
2023-03-19T09:28:53.331Z,5.67
2023-03-19T09:29:55.190Z,5.65
2023-03-19T09:30:57.247Z,5.63
2023-03-19T09:32:00.696Z,5.35
2023-03-19T09:33:04.096Z,5.31
2023-03-19T09:34:06.647Z,5.60
2023-03-19T09:35:12.700Z,5.78
2023-03-19T09:36:15.575Z,6.07
2023-03-19T09:37:18.343Z,5.68
2023-03-19T09:38:21.528Z,6.36
2023-03-19T09:39:24.253Z,5.91
2023-03-19T09:40:48.223Z,5.17
2023-03-19T09:42:15.631Z,5.57
2023-03-19T09:43:38.085Z,5.28
2023-03-19T09:44:43.698Z,5.48
2023-03-19T09:45:47.647Z,6.02
2023-03-19T09:48:12.928Z,5.97
2023-03-19T09:49:24.110Z,6.06
2023-03-19T09:50:26.751Z,5.63
2023-03-19T09:51:47.716Z,6.03
2023-03-19T09:52:56.459Z,6.21
2023-03-19T09:54:02.151Z,5.98
2023-03-19T09:55:26.269Z,6.16
2023-03-19T09:56:31.279Z,6.24
2023-03-19T09:57:36.639Z,6.87
2023-03-19T09:58:39.406Z,6.92
2023-03-19T09:59:41.623Z,8.16
2023-03-19T10:00:47.361Z,12.04
2023-03-19T10:01:53.213Z,9.88
2023-03-19T10:03:14.465Z,8.98
2023-03-19T10:04:29.479Z,7.95
2023-03-19T10:05:51.977Z,6.32
2023-03-19T10:06:57.751Z,6.82
2023-03-19T10:08:32.542Z,6.94
2023-03-19T10:09:48.214Z,7.46
2023-03-19T10:11:03.215Z,7.08
2023-03-19T10:12:33.126Z,7.11
2023-03-19T10:13:38.814Z,6.84
2023-03-19T10:15:02.992Z,7.14
2023-03-19T10:16:08.935Z,6.79
2023-03-19T10:17:34.509Z,7.04
2023-03-19T10:18:37.986Z,6.98
2023-03-19T10:19:46.838Z,7.06
2023-03-19T10:20:58.533Z,6.83
2023-03-19T10:22:04.219Z,7.14
2023-03-19T10:23:38.918Z,7.17
2023-03-19T10:24:44.776Z,7.21
2023-03-19T10:25:47.927Z,7.37
2023-03-19T10:26:54.276Z,6.43
2023-03-19T10:28:02.568Z,6.84
2023-03-19T10:29:16.954Z,7.02
2023-03-19T10:30:20.493Z,7.26
2023-03-19T10:31:29.193Z,6.94
2023-03-19T10:32:47.069Z,7.07
2023-03-19T10:34:14.279Z,6.93
2023-03-19T10:35:25.980Z,7.00
2023-03-19T10:36:32.332Z,6.70
2023-03-19T10:37:35.472Z,6.19
2023-03-19T10:38:43.133Z,5.54
2023-03-19T10:39:48.453Z,5.97
2023-03-19T10:41:10.877Z,5.53
2023-03-19T10:42:42.197Z,5.88
2023-03-19T10:43:47.955Z,6.38
2023-03-19T10:44:53.636Z,7.37
2023-03-19T10:45:57.486Z,14.71
2023-03-19T10:47:12.074Z,16.78
2023-03-19T10:48:18.377Z,9.23
2023-03-19T10:49:20.496Z,7.76
2023-03-19T10:50:28.985Z,7.33
2023-03-19T10:51:31.859Z,6.48
2023-03-19T10:52:36.273Z,6.42
2023-03-19T10:53:39.478Z,7.14
2023-03-19T10:54:44.132Z,6.59
2023-03-19T10:55:58.224Z,5.89
2023-03-19T10:57:00.551Z,6.64
2023-03-19T10:58:05.783Z,5.98
2023-03-19T10:59:11.462Z,6.63
2023-03-19T11:01:35.937Z,6.55
2023-03-19T11:02:41.602Z,6.19
2023-03-19T11:03:53.082Z,5.67
2023-03-19T11:05:13.955Z,5.60
2023-03-19T11:06:19.832Z,5.29
2023-03-19T11:07:25.255Z,5.67
2023-03-19T11:08:35.527Z,5.48
2023-03-19T11:09:37.317Z,5.49
2023-03-19T11:10:43.144Z,5.23
2023-03-19T11:11:51.597Z,6.74
2023-03-19T11:13:06.492Z,5.98
2023-03-19T11:14:18.189Z,5.59
2023-03-19T11:15:23.510Z,5.59
2023-03-19T11:16:25.926Z,5.54
2023-03-19T11:17:40.783Z,5.53
2023-03-19T11:18:46.443Z,5.81
2023-03-19T11:19:54.610Z,6.09
2023-03-19T11:20:59.172Z,5.62
2023-03-19T11:22:16.185Z,5.35
2023-03-19T11:23:19.909Z,5.84
2023-03-19T11:24:21.816Z,5.85
2023-03-19T11:25:44.032Z,7.52
2023-03-19T11:26:50.117Z,6.44
2023-03-19T11:28:04.285Z,7.07
2023-03-19T11:29:07.819Z,6.29
2023-03-19T11:30:17.388Z,5.81
2023-03-19T11:31:29.487Z,5.42
2023-03-19T11:33:05.962Z,5.73
2023-03-19T11:34:17.600Z,5.90
2023-03-19T11:36:27.010Z,5.80
2023-03-19T11:37:50.833Z,5.91
2023-03-19T11:39:08.798Z,5.51
2023-03-19T11:40:16.516Z,5.82
2023-03-19T11:41:31.263Z,6.82
2023-03-19T11:44:08.842Z,6.89
2023-03-19T11:45:27.892Z,6.78
2023-03-19T11:46:41.117Z,6.12
2023-03-19T11:47:55.724Z,6.33
2023-03-19T11:49:18.388Z,6.59
2023-03-19T11:50:39.711Z,7.18
2023-03-19T11:51:51.293Z,6.68
2023-03-19T11:54:12.562Z,6.00
2023-03-19T11:55:33.406Z,6.74
2023-03-19T11:58:13.051Z,5.61
2023-03-19T11:59:30.538Z,5.72
2023-03-19T12:00:53.925Z,5.43
2023-03-19T12:02:23.942Z,5.39
2023-03-19T12:03:51.024Z,5.39
2023-03-19T12:05:19.041Z,5.78
2023-03-19T12:06:33.628Z,5.28
2023-03-19T12:08:00.534Z,6.21
2023-03-19T12:09:24.606Z,5.42
2023-03-19T12:10:39.564Z,5.43
2023-03-19T12:12:03.327Z,5.93
2023-03-19T12:13:38.509Z,5.87
2023-03-19T12:15:02.942Z,5.34
2023-03-19T12:16:44.142Z,5.71
2023-03-19T12:17:46.819Z,5.81
2023-03-19T12:18:55.746Z,6.11
2023-03-19T12:20:18.008Z,4.97
2023-03-19T12:21:43.488Z,5.29
2023-03-19T12:22:55.007Z,6.04
2023-03-19T12:24:18.990Z,5.98
2023-03-19T12:25:41.320Z,5.74
2023-03-19T12:27:20.982Z,6.23
2023-03-19T12:28:26.308Z,5.47
2023-03-19T12:29:51.561Z,5.80
2023-03-19T12:31:06.484Z,6.28
2023-03-19T12:33:50.169Z,7.79
2023-03-19T12:34:58.760Z,5.83
2023-03-19T12:36:04.593Z,8.11
2023-03-19T12:37:32.906Z,6.48
2023-03-19T12:38:44.885Z,5.88
2023-03-19T12:40:07.189Z,6.04
2023-03-19T12:41:13.334Z,5.53
2023-03-19T12:42:19.017Z,5.55
2023-03-19T12:43:27.591Z,5.97
2023-03-19T12:44:39.558Z,5.56
2023-03-19T12:45:51.029Z,5.66
2023-03-19T12:46:59.158Z,5.91
2023-03-19T12:48:16.974Z,5.48
2023-03-19T12:49:22.691Z,5.73
2023-03-19T12:50:26.968Z,5.32
2023-03-19T12:51:36.100Z,5.48
2023-03-19T12:52:40.764Z,5.85
2023-03-19T12:53:55.292Z,5.66
2023-03-19T12:55:13.387Z,6.17
2023-03-19T12:56:33.874Z,6.26
2023-03-19T12:58:10.000Z,5.27
2023-03-19T12:59:30.983Z,5.61
2023-03-19T13:00:59.527Z,5.82
2023-03-19T13:02:05.367Z,6.26
2023-03-19T13:03:17.222Z,5.99
2023-03-19T13:04:25.755Z,6.03
2023-03-19T13:05:54.284Z,5.93
2023-03-19T13:07:08.819Z,5.88
2023-03-19T13:08:20.345Z,6.32
2023-03-19T13:09:38.333Z,5.60
2023-03-19T13:10:40.652Z,5.56
2023-03-19T13:11:49.085Z,5.83
2023-03-19T13:12:54.540Z,5.11
2023-03-19T13:14:03.080Z,5.11
2023-03-19T13:15:14.369Z,4.97
2023-03-19T13:16:29.214Z,5.30
2023-03-19T13:17:50.194Z,5.16
2023-03-19T13:19:11.118Z,5.15
2023-03-19T13:21:33.240Z,5.34
2023-03-19T13:22:38.141Z,8.65
2023-03-19T13:23:44.223Z,6.00
2023-03-19T13:24:48.601Z,6.35
2023-03-19T13:25:53.128Z,5.44
2023-03-19T13:26:58.611Z,5.05
2023-03-19T13:28:03.861Z,5.37
2023-03-19T13:29:15.593Z,5.38
2023-03-19T13:30:19.987Z,5.14
2023-03-19T13:31:26.201Z,5.72
2023-03-19T13:32:50.417Z,6.04
2023-03-19T13:34:01.936Z,6.19
2023-03-19T13:35:16.899Z,6.37
2023-03-19T13:36:20.356Z,6.82
2023-03-19T13:37:23.326Z,6.08
2023-03-19T13:38:41.174Z,6.52
2023-03-19T13:39:45.575Z,6.75
2023-03-19T13:40:59.212Z,7.42
2023-03-19T13:42:16.780Z,7.41
2023-03-19T13:44:44.264Z,7.23
2023-03-19T13:45:52.086Z,5.96
2023-03-19T13:46:54.309Z,6.43
2023-03-19T13:47:58.131Z,6.30
2023-03-19T13:49:20.720Z,5.49
2023-03-19T13:50:26.399Z,6.32
2023-03-19T13:51:29.146Z,6.53
2023-03-19T13:52:34.779Z,6.68
2023-03-19T13:54:53.113Z,6.76
2023-03-19T13:55:58.164Z,6.66
2023-03-19T13:57:04.034Z,13.72
2023-03-19T13:58:12.726Z,12.96
2023-03-19T13:59:19.963Z,20.51
2023-03-19T14:00:44.730Z,8.08
2023-03-19T14:01:46.732Z,16.30
2023-03-19T14:02:52.668Z,7.70
2023-03-19T14:04:00.829Z,6.29
2023-03-19T14:05:15.538Z,6.45
2023-03-19T14:06:36.793Z,5.59
2023-03-19T14:07:42.692Z,6.04
2023-03-19T14:08:46.075Z,5.70
2023-03-19T14:09:50.744Z,6.03
2023-03-19T14:10:56.532Z,5.41
2023-03-19T14:12:18.917Z,6.46
2023-03-19T14:13:42.831Z,6.27
2023-03-19T14:14:57.731Z,6.27
2023-03-19T14:16:09.799Z,6.20
2023-03-19T14:17:27.944Z,6.37
2023-03-19T14:18:31.368Z,6.14
2023-03-19T14:19:37.863Z,6.36
2023-03-19T14:20:48.387Z,5.97
2023-03-19T14:22:09.277Z,6.42
2023-03-19T14:23:36.127Z,6.83
2023-03-19T14:26:11.242Z,6.58
2023-03-19T14:27:16.540Z,6.71
2023-03-19T14:28:22.215Z,6.73
2023-03-19T14:29:26.267Z,7.75
2023-03-19T14:30:41.971Z,8.12
2023-03-19T14:31:50.585Z,7.50